createdAt,value
2022-12-12T00:12:23.282Z,4.66
2022-12-12T00:27:25.657Z,4.45
2022-12-12T00:42:27.934Z,4.59
2022-12-12T00:57:30.122Z,4.5
2022-12-12T01:12:32.347Z,4.7
2022-12-12T01:27:34.567Z,4.66
2022-12-12T01:42:36.765Z,4.58
2022-12-12T01:57:38.995Z,4.53
2022-12-12T02:12:41.249Z,4.73
2022-12-12T02:27:43.440Z,4.59
2022-12-12T02:42:45.678Z,4.4
2022-12-12T02:57:47.935Z,4.75
2022-12-12T03:12:50.162Z,4.69
2022-12-12T03:27:52.358Z,4.59
2022-12-12T03:42:54.576Z,4.77
2022-12-12T03:57:57.105Z,4.88
2022-12-12T04:12:59.792Z,5.18
2022-12-12T04:28:03.212Z,5.23
2022-12-12T04:43:05.489Z,5.06
2022-12-12T04:58:07.730Z,4.79
2022-12-12T05:13:09.925Z,4.79
2022-12-12T05:28:12.939Z,4.38
2022-12-12T05:43:15.309Z,4.64
2022-12-12T05:58:17.542Z,4.64
2022-12-12T06:13:19.751Z,5.02
2022-12-12T06:28:21.937Z,4.45
2022-12-12T06:43:24.141Z,4.54
2022-12-12T06:58:26.455Z,4.93
2022-12-12T07:13:28.639Z,4.79
2022-12-12T07:28:30.961Z,4.67
2022-12-12T07:43:35.290Z,4.85
2022-12-12T07:58:39.516Z,4.66
2022-12-12T08:13:41.900Z,4.87
2022-12-12T08:28:44.161Z,4.64
2022-12-12T08:43:46.375Z,4.51
2022-12-12T08:58:48.622Z,4.11
2022-12-12T09:13:50.848Z,4.41
2022-12-12T09:28:53.080Z,4.43
2022-12-12T09:43:55.279Z,4.68
2022-12-12T09:58:57.656Z,4.54
2022-12-12T10:13:59.892Z,4.27
2022-12-12T10:29:02.246Z,4.62
2022-12-12T10:44:04.525Z,4.58
2022-12-12T10:59:06.942Z,4.54
2022-12-12T11:14:09.153Z,4.55
2022-12-12T11:29:11.401Z,4.46
2022-12-12T11:44:18.626Z,4.3
2022-12-12T11:59:22.455Z,4.1
2022-12-12T12:14:24.676Z,4.01
2022-12-12T12:29:26.919Z,4.16
2022-12-12T12:44:29.076Z,4.44
2022-12-12T12:59:31.325Z,4.38
2022-12-12T13:14:33.547Z,4.17
2022-12-12T13:29:35.738Z,4.08
2022-12-12T13:44:37.957Z,4.32
2022-12-12T13:59:40.169Z,4.01
2022-12-12T14:14:42.401Z,3.99
2022-12-12T14:29:44.589Z,4.17
2022-12-12T14:44:50.673Z,4.17
2022-12-12T14:59:53.221Z,4.37
2022-12-12T15:14:55.391Z,4.26
2022-12-12T15:29:57.630Z,4.29
2022-12-12T15:45:00.051Z,4.73
2022-12-12T16:00:02.392Z,4.81
2022-12-12T16:15:04.839Z,4.75
2022-12-12T16:30:07.097Z,4.6
2022-12-12T16:45:09.514Z,4.73
2022-12-12T17:00:12.045Z,4.55
2022-12-12T17:15:14.545Z,4.7
2022-12-12T17:30:17.089Z,4.74
2022-12-12T17:45:19.580Z,4.78
2022-12-12T18:00:21.856Z,4.67
2022-12-12T18:15:24.208Z,4.88
2022-12-12T18:30:26.421Z,5.32
2022-12-12T18:45:28.818Z,5.54
2022-12-12T19:00:31.080Z,5.34
2022-12-12T19:15:33.472Z,5.15
2022-12-12T19:30:35.846Z,5.71
2022-12-12T19:45:38.088Z,5.18
2022-12-12T20:00:40.327Z,5.78
2022-12-12T20:15:42.726Z,6.7
2022-12-12T20:30:47.638Z,6.71
2022-12-12T20:45:51.837Z,6.18
2022-12-12T21:00:54.113Z,6.31
2022-12-12T21:15:56.361Z,6.2
2022-12-12T21:30:58.676Z,6.44
2022-12-12T21:46:01.006Z,6.62
2022-12-12T22:01:03.197Z,5.78
2022-12-12T22:16:05.574Z,5.49
2022-12-12T22:31:07.888Z,5.1
2022-12-12T22:46:10.181Z,5.37
2022-12-12T23:01:12.448Z,5.22
2022-12-12T23:16:14.802Z,5.4
2022-12-12T23:31:17.122Z,5.48
2022-12-12T23:46:19.542Z,5.04
